createdAt,value
2022-08-21T00:00:17.217Z,99.90
2022-08-21T00:02:57.986Z,99.90
2022-08-21T00:05:27.051Z,99.90
2022-08-21T00:07:54.635Z,99.90
2022-08-21T00:10:22.045Z,99.90
2022-08-21T00:12:49.458Z,99.90
2022-08-21T00:15:22.423Z,99.90
2022-08-21T00:17:49.884Z,99.90
2022-08-21T00:20:18.199Z,99.90
2022-08-21T00:22:46.161Z,99.90
2022-08-21T00:25:15.075Z,99.90
2022-08-21T00:27:47.471Z,99.90
2022-08-21T00:30:23.275Z,99.90
2022-08-21T00:32:51.535Z,99.90
2022-08-21T00:35:20.510Z,99.90
2022-08-21T00:37:47.879Z,99.90
2022-08-21T00:40:18.933Z,99.90
2022-08-21T00:42:53.420Z,99.90
2022-08-21T00:45:22.876Z,99.90
2022-08-21T00:47:51.491Z,99.90
2022-08-21T00:50:22.057Z,99.90
2022-08-21T00:52:52.329Z,99.90
2022-08-21T00:55:20.938Z,99.90
2022-08-21T00:57:54.312Z,99.90
2022-08-21T01:00:29.982Z,99.90
2022-08-21T01:02:59.723Z,99.90
2022-08-21T01:05:27.963Z,99.90
2022-08-21T01:07:58.159Z,99.90
2022-08-21T01:10:25.636Z,99.90
2022-08-21T01:12:54.131Z,99.90
2022-08-21T01:15:23.864Z,99.90
2022-08-21T01:17:51.431Z,99.90
2022-08-21T01:20:18.504Z,99.90
2022-08-21T01:22:46.087Z,99.90
2022-08-21T01:25:16.165Z,99.90
2022-08-21T01:27:43.899Z,99.90
2022-08-21T01:30:17.955Z,99.90
2022-08-21T01:32:45.582Z,99.90
2022-08-21T01:35:13.407Z,99.90
2022-08-21T01:37:41.101Z,99.90
2022-08-21T01:40:10.141Z,99.90
2022-08-21T01:42:37.655Z,99.90
2022-08-21T01:45:06.100Z,99.90
2022-08-21T01:47:33.683Z,99.90
2022-08-21T01:50:01.128Z,99.90
2022-08-21T01:52:28.168Z,99.90
2022-08-21T01:54:55.625Z,99.90
2022-08-21T01:57:26.260Z,99.90
2022-08-21T01:59:53.857Z,99.90
2022-08-21T02:02:20.897Z,99.90
2022-08-21T02:04:47.925Z,99.90
2022-08-21T02:07:15.933Z,99.90
2022-08-21T02:09:43.864Z,99.90
2022-08-21T02:12:12.298Z,99.90
2022-08-21T02:14:39.443Z,99.90
2022-08-21T02:17:09.250Z,99.90
2022-08-21T02:19:40.343Z,99.90
2022-08-21T02:22:10.358Z,99.90
2022-08-21T02:24:38.546Z,99.90
2022-08-21T02:27:26.128Z,99.90
2022-08-21T02:29:56.486Z,99.90
2022-08-21T02:32:23.589Z,99.90
2022-08-21T02:34:50.840Z,99.90
2022-08-21T02:37:17.823Z,99.90
2022-08-21T02:39:44.938Z,99.90
2022-08-21T02:42:11.993Z,99.90
2022-08-21T02:44:39.089Z,99.90
2022-08-21T02:47:06.254Z,99.90
2022-08-21T02:49:33.333Z,99.90
2022-08-21T02:52:00.359Z,99.90
2022-08-21T02:54:27.471Z,99.90
2022-08-21T02:56:54.663Z,99.90
2022-08-21T02:59:21.861Z,99.90
2022-08-21T03:01:49.073Z,99.90
2022-08-21T03:04:16.296Z,99.90
2022-08-21T03:06:43.855Z,99.90
2022-08-21T03:09:10.980Z,99.90
2022-08-21T03:11:38.238Z,99.90
2022-08-21T03:14:06.196Z,99.90
2022-08-21T03:16:35.322Z,99.90
2022-08-21T03:19:03.405Z,99.90
2022-08-21T03:21:30.465Z,99.90
2022-08-21T03:23:57.542Z,99.90
2022-08-21T03:26:25.504Z,99.90
2022-08-21T03:28:54.004Z,99.90
2022-08-21T03:31:22.612Z,99.90
2022-08-21T03:33:49.764Z,99.90
2022-08-21T03:36:16.969Z,99.90
2022-08-21T03:38:44.076Z,99.90
2022-08-21T03:41:11.053Z,99.90
2022-08-21T03:43:39.586Z,99.90
2022-08-21T03:46:07.801Z,99.90
2022-08-21T03:48:36.857Z,99.90
2022-08-21T03:51:04.500Z,99.90
2022-08-21T03:53:31.794Z,99.90
2022-08-21T03:55:59.433Z,99.90
2022-08-21T03:58:29.134Z,99.90
2022-08-21T04:00:58.604Z,99.90
2022-08-21T04:03:26.979Z,99.90
2022-08-21T04:05:54.062Z,99.90
2022-08-21T04:08:21.143Z,99.90
2022-08-21T04:10:51.064Z,99.90
2022-08-21T04:13:18.315Z,99.90
2022-08-21T04:15:45.729Z,99.90
2022-08-21T04:18:12.817Z,99.90
2022-08-21T04:20:41.824Z,99.90
2022-08-21T04:23:12.569Z,99.90
2022-08-21T04:25:51.791Z,99.90
2022-08-21T04:28:18.895Z,99.90
2022-08-21T04:30:46.278Z,99.90
2022-08-21T04:33:13.636Z,99.90
2022-08-21T04:35:40.681Z,99.90
2022-08-21T04:38:07.687Z,99.90
2022-08-21T04:40:34.702Z,99.90
2022-08-21T04:43:09.379Z,99.90
2022-08-21T04:45:45.864Z,99.90
2022-08-21T04:48:15.813Z,99.90
2022-08-21T04:51:08.714Z,99.90
2022-08-21T04:53:46.619Z,99.90
2022-08-21T04:56:48.834Z,99.90
2022-08-21T04:59:23.050Z,99.90
2022-08-21T05:01:51.224Z,99.90
2022-08-21T05:04:23.102Z,99.90
2022-08-21T05:06:51.835Z,99.90
2022-08-21T05:09:20.452Z,99.90
2022-08-21T05:11:47.956Z,99.90
2022-08-21T05:14:15.083Z,99.90
2022-08-21T05:16:42.858Z,99.90
2022-08-21T05:19:09.956Z,99.90
2022-08-21T05:21:40.847Z,99.90
2022-08-21T05:24:08.363Z,99.90
2022-08-21T05:26:38.349Z,99.90
2022-08-21T05:29:15.419Z,99.90
2022-08-21T05:31:43.998Z,99.90
2022-08-21T05:34:11.017Z,99.90
2022-08-21T05:36:38.125Z,99.90
2022-08-21T05:39:05.596Z,99.90
2022-08-21T05:41:34.261Z,99.90
2022-08-21T05:44:01.731Z,99.90
2022-08-21T05:46:29.078Z,99.90
2022-08-21T05:48:56.099Z,99.90
2022-08-21T05:51:23.231Z,99.90
2022-08-21T05:53:50.308Z,99.90
2022-08-21T05:56:17.608Z,99.90
2022-08-21T05:58:44.696Z,99.90
2022-08-21T06:01:12.104Z,99.90
2022-08-21T06:03:41.983Z,99.90
2022-08-21T06:06:10.377Z,99.90
2022-08-21T06:08:37.518Z,99.90
2022-08-21T06:11:05.752Z,99.90
2022-08-21T06:13:32.953Z,99.90
2022-08-21T06:16:15.922Z,99.90
2022-08-21T06:18:44.578Z,99.90
2022-08-21T06:21:12.716Z,99.90
2022-08-21T06:23:40.120Z,99.90
2022-08-21T06:26:08.769Z,99.90
2022-08-21T06:28:37.989Z,99.90
2022-08-21T06:31:23.221Z,99.90
2022-08-21T06:33:51.342Z,99.90
2022-08-21T06:36:19.186Z,99.90
2022-08-21T06:38:50.890Z,99.90
2022-08-21T06:41:26.319Z,99.90
2022-08-21T06:43:54.886Z,99.90
2022-08-21T06:46:22.095Z,99.90
2022-08-21T06:48:49.251Z,99.90
2022-08-21T06:51:16.616Z,99.90
2022-08-21T06:53:43.621Z,99.90
2022-08-21T06:56:10.770Z,99.90
2022-08-21T06:58:37.993Z,99.90
2022-08-21T07:01:06.057Z,99.90
2022-08-21T07:03:40.810Z,99.90
2022-08-21T07:06:10.114Z,99.90
2022-08-21T07:08:38.105Z,99.90
2022-08-21T07:11:11.953Z,99.90
2022-08-21T07:13:39.009Z,99.90
2022-08-21T07:16:06.474Z,99.90
2022-08-21T07:18:33.529Z,99.90
2022-08-21T07:21:04.398Z,99.90
2022-08-21T07:23:34.474Z,99.90
2022-08-21T07:26:01.693Z,99.90
2022-08-21T07:28:29.700Z,99.90
2022-08-21T07:31:00.057Z,99.90
2022-08-21T07:33:29.301Z,99.90
2022-08-21T07:35:56.529Z,99.90
2022-08-21T07:38:24.772Z,99.90
2022-08-21T07:40:53.737Z,99.90
2022-08-21T07:43:20.928Z,99.90
2022-08-21T07:45:48.532Z,99.90
2022-08-21T07:48:16.016Z,99.90
2022-08-21T07:50:43.516Z,99.90
2022-08-21T07:53:10.863Z,99.90
2022-08-21T07:55:37.836Z,99.90
2022-08-21T07:58:04.909Z,99.90
2022-08-21T08:00:32.228Z,99.90
2022-08-21T08:02:59.528Z,99.90
2022-08-21T08:05:30.036Z,99.90
2022-08-21T08:07:57.164Z,99.90
2022-08-21T08:10:24.544Z,99.90
2022-08-21T08:12:52.945Z,99.90
2022-08-21T08:15:27.965Z,99.90
2022-08-21T08:17:55.923Z,99.90
2022-08-21T08:20:23.924Z,99.90
2022-08-21T08:22:51.039Z,99.90
2022-08-21T08:25:19.649Z,99.90
2022-08-21T08:27:46.743Z,99.90
2022-08-21T08:30:16.438Z,99.90
2022-08-21T08:32:43.712Z,99.90
2022-08-21T08:35:12.335Z,99.90
2022-08-21T08:37:41.381Z,99.90
2022-08-21T08:40:19.124Z,99.90
2022-08-21T08:42:48.619Z,99.90
2022-08-21T08:45:20.910Z,99.90
2022-08-21T08:47:59.258Z,99.90
2022-08-21T08:50:50.796Z,99.90
2022-08-21T08:53:25.361Z,99.90
2022-08-21T08:55:53.717Z,99.90
2022-08-21T08:58:34.269Z,99.90
2022-08-21T09:01:01.961Z,99.90
2022-08-21T09:03:29.572Z,99.90
2022-08-21T09:06:30.089Z,99.90
2022-08-21T09:09:28.094Z,99.90
2022-08-21T09:12:11.602Z,99.90
2022-08-21T09:15:14.513Z,99.90
2022-08-21T09:18:40.167Z,99.90
2022-08-21T09:22:06.061Z,99.90
2022-08-21T09:25:24.022Z,99.90
2022-08-21T09:27:51.849Z,99.90
2022-08-21T09:30:25.102Z,99.90
2022-08-21T09:32:52.417Z,99.90
2022-08-21T09:35:22.549Z,99.90
2022-08-21T09:38:07.834Z,99.90
2022-08-21T09:40:42.737Z,99.90
2022-08-21T09:43:28.416Z,99.90
2022-08-21T09:46:22.347Z,99.90
2022-08-21T09:48:52.429Z,99.90
2022-08-21T09:51:23.987Z,99.90
2022-08-21T09:53:59.518Z,99.90
2022-08-21T09:56:51.128Z,99.90
2022-08-21T09:59:36.885Z,99.90
2022-08-21T10:02:28.583Z,99.90
2022-08-21T10:05:17.023Z,99.90
2022-08-21T10:07:44.310Z,99.90
2022-08-21T10:10:21.743Z,99.90
2022-08-21T10:13:37.882Z,99.90
2022-08-21T10:16:29.747Z,99.90
2022-08-21T10:19:31.499Z,99.90
2022-08-21T10:22:33.952Z,99.90
2022-08-21T10:25:37.924Z,99.90
2022-08-21T10:28:43.912Z,99.90
2022-08-21T10:31:38.993Z,99.80
2022-08-21T10:34:47.859Z,99.00
2022-08-21T10:37:54.398Z,99.40
2022-08-21T10:40:43.594Z,98.60
2022-08-21T10:44:04.174Z,98.00
2022-08-21T10:47:05.785Z,94.80
2022-08-21T10:50:10.601Z,93.90
2022-08-21T10:53:09.047Z,93.10
2022-08-21T10:55:49.343Z,93.70
2022-08-21T10:58:34.812Z,90.10
2022-08-21T11:11:09.967Z,72.70
2022-08-21T11:13:56.599Z,69.70
2022-08-21T11:20:07.228Z,66.00
2022-08-21T11:23:03.813Z,64.70
2022-08-21T11:25:42.423Z,61.40
2022-08-21T11:28:29.248Z,59.80
2022-08-21T11:31:23.532Z,58.10
2022-08-21T11:34:05.211Z,57.50
2022-08-21T11:36:52.229Z,55.00
2022-08-21T11:39:39.630Z,55.70
2022-08-21T11:42:37.065Z,57.00
2022-08-21T11:45:50.891Z,59.30
2022-08-21T11:49:09.000Z,57.10
2022-08-21T11:52:06.093Z,60.00
2022-08-21T11:54:56.966Z,54.10
2022-08-21T11:57:30.005Z,54.10
2022-08-21T12:00:21.764Z,54.20
2022-08-21T12:02:56.463Z,54.10
2022-08-21T12:05:36.184Z,51.40
2022-08-21T12:08:34.634Z,50.90
2022-08-21T12:11:50.537Z,50.50
2022-08-21T12:14:20.716Z,52.40
2022-08-21T12:16:50.584Z,50.20
2022-08-21T12:22:13.326Z,48.90
2022-08-21T12:24:51.645Z,47.70
2022-08-21T12:27:28.304Z,45.30
2022-08-21T12:30:05.059Z,45.80
2022-08-21T12:33:00.045Z,44.50
2022-08-21T12:35:33.659Z,43.80
2022-08-21T12:38:33.238Z,44.00
2022-08-21T12:41:05.332Z,41.60
2022-08-21T12:43:39.066Z,41.10
2022-08-21T12:46:06.334Z,40.70
2022-08-21T12:48:57.723Z,41.20
2022-08-21T12:51:30.244Z,41.30
2022-08-21T12:54:00.151Z,40.90
2022-08-21T12:56:31.342Z,41.40
2022-08-21T12:59:06.403Z,42.60
2022-08-21T13:01:41.841Z,41.40
2022-08-21T13:04:16.601Z,38.50
2022-08-21T13:06:51.023Z,39.40
2022-08-21T13:09:24.906Z,36.90
2022-08-21T13:11:52.891Z,37.50
2022-08-21T13:14:45.792Z,32.80
2022-08-21T13:17:23.230Z,31.10
2022-08-21T13:20:08.822Z,36.50
2022-08-21T13:22:43.077Z,35.20
2022-08-21T13:25:16.504Z,35.10
2022-08-21T13:27:48.512Z,35.70
2022-08-21T13:30:22.202Z,34.10
2022-08-21T13:32:58.356Z,36.60
2022-08-21T13:35:31.145Z,38.00
2022-08-21T13:37:59.623Z,37.40
2022-08-21T13:40:52.316Z,42.50
2022-08-21T13:43:23.243Z,34.20
2022-08-21T13:45:53.301Z,36.20
2022-08-21T13:48:22.857Z,33.20
2022-08-21T13:50:50.318Z,35.00
2022-08-21T13:53:48.415Z,34.60
2022-08-21T13:56:46.499Z,36.70
2022-08-21T13:59:24.204Z,33.30
2022-08-21T14:01:59.971Z,30.10
2022-08-21T14:04:59.435Z,33.50
2022-08-21T14:07:34.369Z,32.10
2022-08-21T14:10:23.246Z,32.20
2022-08-21T14:12:58.923Z,32.30
2022-08-21T14:15:31.432Z,32.30
2022-08-21T14:18:19.450Z,32.50
2022-08-21T14:20:47.163Z,33.50
2022-08-21T14:23:26.473Z,30.40
2022-08-21T14:25:53.896Z,31.20
2022-08-21T14:28:33.849Z,32.70
2022-08-21T14:31:14.770Z,31.20
2022-08-21T14:33:41.950Z,31.00
2022-08-21T14:36:09.290Z,29.80
2022-08-21T14:38:38.684Z,28.90
2022-08-21T14:41:18.494Z,27.00
2022-08-21T14:44:05.872Z,29.40
2022-08-21T14:46:36.352Z,28.90
2022-08-21T14:49:09.744Z,29.30
2022-08-21T14:51:36.790Z,28.50
2022-08-21T14:54:15.200Z,27.80
2022-08-21T14:56:42.293Z,30.40
2022-08-21T14:59:10.666Z,29.60
2022-08-21T15:01:38.984Z,28.20
2022-08-21T15:04:06.160Z,29.10
2022-08-21T15:06:33.434Z,29.20
2022-08-21T15:09:00.628Z,29.30
2022-08-21T15:11:42.713Z,31.80
2022-08-21T15:14:19.744Z,30.50
2022-08-21T15:16:47.222Z,29.40
2022-08-21T15:19:14.221Z,30.00
2022-08-21T15:21:41.323Z,29.20
2022-08-21T15:24:08.356Z,29.90
2022-08-21T15:26:36.882Z,28.30
2022-08-21T15:29:06.948Z,26.90
2022-08-21T15:31:34.234Z,27.70
2022-08-21T15:34:01.324Z,28.30
2022-08-21T15:36:28.364Z,29.70
2022-08-21T15:38:55.417Z,31.20
2022-08-21T15:41:22.444Z,29.00
2022-08-21T15:43:52.591Z,26.70
2022-08-21T15:46:21.517Z,24.40
2022-08-21T15:48:48.811Z,25.30
2022-08-21T15:51:17.713Z,26.00
2022-08-21T15:53:45.719Z,26.00
2022-08-21T15:56:23.666Z,26.70
2022-08-21T15:59:01.379Z,24.20
2022-08-21T16:01:29.566Z,24.90
2022-08-21T16:04:22.225Z,27.20
2022-08-21T16:06:54.082Z,27.80
2022-08-21T16:09:23.341Z,26.70
2022-08-21T16:11:51.545Z,26.00
2022-08-21T16:14:19.008Z,27.40
2022-08-21T16:16:46.530Z,26.70
2022-08-21T16:19:14.764Z,26.40
2022-08-21T16:21:42.293Z,27.60
2022-08-21T16:24:09.479Z,26.60
2022-08-21T16:26:36.692Z,25.90
2022-08-21T16:29:05.230Z,26.10
2022-08-21T16:31:33.209Z,27.50
2022-08-21T16:34:01.227Z,28.60
2022-08-21T16:36:28.826Z,28.70
2022-08-21T16:38:57.572Z,30.60
2022-08-21T16:41:29.138Z,32.90
2022-08-21T16:43:56.594Z,35.60
2022-08-21T16:46:25.324Z,35.00
2022-08-21T16:48:52.635Z,40.00
2022-08-21T16:51:19.706Z,42.00
2022-08-21T16:53:46.742Z,43.60
2022-08-21T16:56:15.972Z,42.10
2022-08-21T16:58:44.969Z,39.40
2022-08-21T17:01:15.211Z,38.30
2022-08-21T17:03:46.004Z,37.40
2022-08-21T17:06:14.732Z,36.30
2022-08-21T17:08:42.649Z,37.30
2022-08-21T17:11:36.539Z,39.30
2022-08-21T17:14:09.228Z,39.70
2022-08-21T17:16:38.218Z,40.80
2022-08-21T17:19:06.383Z,40.00
2022-08-21T17:21:33.992Z,39.20
2022-08-21T17:24:10.052Z,40.10
2022-08-21T17:26:37.804Z,43.50
2022-08-21T17:29:09.886Z,47.90
2022-08-21T17:31:39.449Z,50.10
2022-08-21T17:34:06.724Z,53.20
2022-08-21T17:36:33.789Z,55.10
2022-08-21T17:39:01.040Z,56.30
2022-08-21T17:41:28.215Z,56.70
2022-08-21T17:43:55.454Z,55.90
2022-08-21T17:46:26.859Z,56.80
2022-08-21T17:48:54.834Z,58.40
2022-08-21T17:51:22.320Z,59.00
2022-08-21T17:53:49.539Z,60.40
2022-08-21T17:56:18.944Z,59.70
2022-08-21T17:58:49.502Z,59.60
2022-08-21T18:01:17.235Z,59.00
2022-08-21T18:03:46.400Z,58.40
2022-08-21T18:06:17.439Z,60.00
2022-08-21T18:08:45.598Z,63.80
2022-08-21T18:11:23.523Z,66.20
2022-08-21T18:13:53.989Z,64.50
2022-08-21T18:16:22.252Z,66.00
2022-08-21T18:18:51.595Z,67.50
2022-08-21T18:21:19.225Z,67.30
2022-08-21T18:23:46.456Z,67.80
2022-08-21T18:26:18.028Z,69.60
2022-08-21T18:28:45.438Z,69.10
2022-08-21T18:31:13.372Z,70.40
2022-08-21T18:33:57.031Z,68.60
2022-08-21T18:36:27.486Z,68.60
2022-08-21T18:39:08.697Z,70.90
2022-08-21T18:41:44.852Z,72.60
2022-08-21T18:44:13.168Z,72.80
2022-08-21T18:46:40.442Z,69.00
2022-08-21T18:49:07.538Z,67.00
2022-08-21T18:51:34.513Z,68.40
2022-08-21T18:54:05.103Z,68.90
2022-08-21T18:56:40.949Z,69.10
2022-08-21T18:59:18.005Z,68.70
2022-08-21T19:04:43.868Z,68.60
2022-08-21T19:10:27.497Z,74.60
2022-08-21T19:12:48.687Z,74.10
2022-08-21T19:15:18.998Z,75.10
2022-08-21T19:17:51.180Z,76.50
2022-08-21T19:20:27.321Z,76.40
2022-08-21T19:22:56.267Z,77.40
2022-08-21T19:25:34.079Z,81.60
2022-08-21T19:28:11.210Z,80.20
2022-08-21T19:30:46.261Z,81.50
2022-08-21T19:33:23.758Z,83.10
2022-08-21T19:35:52.499Z,83.70
2022-08-21T19:38:20.068Z,81.10
2022-08-21T19:40:47.543Z,86.40
2022-08-21T19:43:15.065Z,89.00
2022-08-21T19:45:42.146Z,89.70
2022-08-21T19:48:09.836Z,88.00
2022-08-21T19:50:37.142Z,88.30
2022-08-21T19:53:05.041Z,92.10
2022-08-21T19:55:43.537Z,92.80
2022-08-21T19:58:25.953Z,93.10
2022-08-21T20:00:53.335Z,93.20
2022-08-21T20:03:24.233Z,93.50
2022-08-21T20:05:51.439Z,93.00
2022-08-21T20:08:21.407Z,92.40
2022-08-21T20:10:51.120Z,92.10
2022-08-21T20:13:22.177Z,93.30
2022-08-21T20:15:50.974Z,93.20
2022-08-21T20:18:18.985Z,93.70
2022-08-21T20:20:54.271Z,93.80
2022-08-21T20:23:29.797Z,93.70
2022-08-21T20:25:59.243Z,93.50
2022-08-21T20:28:28.022Z,93.80
2022-08-21T20:30:56.766Z,95.20
2022-08-21T20:33:24.620Z,95.70
2022-08-21T20:35:52.270Z,97.00
2022-08-21T20:38:20.703Z,95.80
2022-08-21T20:40:50.588Z,97.30
2022-08-21T20:43:20.281Z,97.60
2022-08-21T20:45:48.201Z,97.00
2022-08-21T20:48:32.014Z,96.50
2022-08-21T20:51:41.912Z,98.20
2022-08-21T20:54:33.538Z,99.90
2022-08-21T20:57:24.138Z,99.90
2022-08-21T20:59:58.177Z,99.90
2022-08-21T21:03:13.262Z,99.90
2022-08-21T21:06:01.961Z,99.90
2022-08-21T21:08:46.702Z,99.90
2022-08-21T21:11:28.429Z,99.90
2022-08-21T21:14:05.494Z,99.90
2022-08-21T21:16:40.394Z,99.90
2022-08-21T21:19:37.198Z,99.90
2022-08-21T21:22:32.203Z,99.90
2022-08-21T21:25:11.166Z,99.90
2022-08-21T21:27:49.204Z,99.90
2022-08-21T21:30:46.704Z,99.90
2022-08-21T21:33:17.053Z,99.90
2022-08-21T21:35:49.432Z,99.90
2022-08-21T21:41:44.823Z,99.90
2022-08-21T21:45:06.375Z,99.90
2022-08-21T21:48:13.862Z,99.90
2022-08-21T21:51:21.415Z,99.90
2022-08-21T21:54:04.937Z,99.90
2022-08-21T21:57:01.561Z,99.90
2022-08-21T21:59:51.399Z,99.90
2022-08-21T22:02:56.009Z,99.90
2022-08-21T22:09:18.593Z,99.90
2022-08-21T22:12:08.374Z,99.90
2022-08-21T22:14:40.243Z,99.90
2022-08-21T22:26:10.226Z,99.90
2022-08-21T22:28:41.737Z,99.90
2022-08-21T22:31:29.840Z,99.90
2022-08-21T22:34:23.047Z,99.90
2022-08-21T22:37:00.976Z,99.90
2022-08-21T22:39:38.537Z,99.90
2022-08-21T22:42:16.384Z,99.90
2022-08-21T22:44:56.325Z,99.90
2022-08-21T22:47:38.622Z,99.90
2022-08-21T22:50:42.330Z,99.90
2022-08-21T22:53:10.065Z,99.90
2022-08-21T22:55:52.488Z,99.90
2022-08-21T22:58:24.064Z,99.90
2022-08-21T23:01:33.486Z,99.90
2022-08-21T23:04:15.947Z,99.90
2022-08-21T23:07:06.094Z,99.90
2022-08-21T23:09:45.077Z,99.90
2022-08-21T23:12:34.011Z,99.90
2022-08-21T23:15:07.857Z,99.90
2022-08-21T23:18:15.680Z,99.90
2022-08-21T23:20:56.271Z,99.90
2022-08-21T23:23:30.099Z,99.90
2022-08-21T23:26:17.629Z,99.90
2022-08-21T23:29:12.782Z,99.90
2022-08-21T23:32:35.573Z,99.90
2022-08-21T23:35:51.983Z,99.90
2022-08-21T23:38:59.674Z,99.90
2022-08-21T23:42:12.002Z,99.90
2022-08-21T23:45:17.878Z,99.90
2022-08-21T23:51:48.122Z,99.90
2022-08-21T23:54:27.014Z,99.90
2022-08-21T23:57:36.095Z,99.90
